sensor_id;sensor_type;location;lat;lon;timestamp;pressure;altitude;pressure_sealevel;temperature;humidity
64402;BME280;50724;42.376;23.768;2023-04-03T00:02:58;92522.38;;;5.63;75.62
64402;BME280;50724;42.376;23.768;2023-04-03T00:05:59;92518.84;;;5.72;76.11
64402;BME280;50724;42.376;23.768;2023-04-03T00:08:59;92507.59;;;5.55;76.54
64402;BME280;50724;42.376;23.768;2023-04-03T00:12:00;92518.63;;;5.40;77.42
64402;BME280;50724;42.376;23.768;2023-04-03T00:15:00;92514.19;;;5.32;76.68
64402;BME280;50724;42.376;23.768;2023-04-03T00:18:02;92514.72;;;5.18;78.07
64402;BME280;50724;42.376;23.768;2023-04-03T00:21:03;92522.88;;;5.41;77.15
64402;BME280;50724;42.376;23.768;2023-04-03T00:24:04;92514.91;;;5.42;77.30
64402;BME280;50724;42.376;23.768;2023-04-03T00:27:04;92516.28;;;5.29;78.57
64402;BME280;50724;42.376;23.768;2023-04-03T00:30:06;92503.09;;;5.22;78.75
64402;BME280;50724;42.376;23.768;2023-04-03T00:33:08;92506.06;;;5.10;79.41
64402;BME280;50724;42.376;23.768;2023-04-03T00:36:10;92500.72;;;5.11;79.62
64402;BME280;50724;42.376;23.768;2023-04-03T00:39:10;92502.72;;;5.17;79.69
64402;BME280;50724;42.376;23.768;2023-04-03T00:42:11;92502.56;;;5.19;79.30
64402;BME280;50724;42.376;23.768;2023-04-03T00:45:26;92502.28;;;5.22;78.63
64402;BME280;50724;42.376;23.768;2023-04-03T00:51:39;92510.75;;;5.06;79.58
64402;BME280;50724;42.376;23.768;2023-04-03T00:54:40;92504.13;;;4.94;79.95
64402;BME280;50724;42.376;23.768;2023-04-03T00:57:42;92509.00;;;4.97;80.27
64402;BME280;50724;42.376;23.768;2023-04-03T01:00:46;92503.16;;;4.95;80.66
64402;BME280;50724;42.376;23.768;2023-04-03T01:03:48;92508.78;;;4.91;79.96
64402;BME280;50724;42.376;23.768;2023-04-03T01:06:48;92513.66;;;4.76;81.13
64402;BME280;50724;42.376;23.768;2023-04-03T01:09:52;92515.34;;;4.67;81.18
64402;BME280;50724;42.376;23.768;2023-04-03T01:12:56;92515.06;;;4.70;81.10
64402;BME280;50724;42.376;23.768;2023-04-03T01:15:57;92519.75;;;4.57;81.93
64402;BME280;50724;42.376;23.768;2023-04-03T01:19:01;92514.34;;;4.51;83.04
64402;BME280;50724;42.376;23.768;2023-04-03T01:22:28;92526.19;;;4.80;82.14
64402;BME280;50724;42.376;23.768;2023-04-03T01:25:43;92518.16;;;4.74;82.60
64402;BME280;50724;42.376;23.768;2023-04-03T01:28:45;92518.47;;;4.71;82.98
64402;BME280;50724;42.376;23.768;2023-04-03T01:31:53;92523.34;;;4.56;83.27
64402;BME280;50724;42.376;23.768;2023-04-03T01:34:54;92520.59;;;4.58;83.65
64402;BME280;50724;42.376;23.768;2023-04-03T01:37:55;92515.78;;;4.45;84.11
64402;BME280;50724;42.376;23.768;2023-04-03T01:40:55;92520.31;;;4.34;84.31
64402;BME280;50724;42.376;23.768;2023-04-03T01:43:56;92514.13;;;4.44;84.70
64402;BME280;50724;42.376;23.768;2023-04-03T01:46:56;92509.84;;;4.53;84.14
64402;BME280;50724;42.376;23.768;2023-04-03T01:49:57;92516.63;;;4.63;83.91
64402;BME280;50724;42.376;23.768;2023-04-03T01:52:57;92510.91;;;4.60;83.91
64402;BME280;50724;42.376;23.768;2023-04-03T01:55:58;92515.41;;;4.58;83.98
64402;BME280;50724;42.376;23.768;2023-04-03T01:58:58;92512.16;;;4.56;83.71
64402;BME280;50724;42.376;23.768;2023-04-03T02:01:59;92511.34;;;4.55;83.55
64402;BME280;50724;42.376;23.768;2023-04-03T02:04:59;92506.69;;;4.59;84.10
64402;BME280;50724;42.376;23.768;2023-04-03T02:08:00;92508.69;;;4.65;84.02
64402;BME280;50724;42.376;23.768;2023-04-03T02:11:00;92501.06;;;4.63;83.04
64402;BME280;50724;42.376;23.768;2023-04-03T02:14:01;92500.91;;;4.65;83.72
64402;BME280;50724;42.376;23.768;2023-04-03T02:17:01;92500.16;;;4.55;83.69
64402;BME280;50724;42.376;23.768;2023-04-03T02:20:05;92504.00;;;4.51;83.63
64402;BME280;50724;42.376;23.768;2023-04-03T02:23:06;92496.34;;;4.59;83.54
64402;BME280;50724;42.376;23.768;2023-04-03T02:26:12;92492.31;;;4.64;83.04
64402;BME280;50724;42.376;23.768;2023-04-03T02:29:12;92488.56;;;4.59;83.42
64402;BME280;50724;42.376;23.768;2023-04-03T02:32:13;92487.53;;;4.69;82.65
64402;BME280;50724;42.376;23.768;2023-04-03T02:35:14;92490.94;;;4.52;83.32
64402;BME280;50724;42.376;23.768;2023-04-03T02:38:15;92487.41;;;4.44;84.40
64402;BME280;50724;42.376;23.768;2023-04-03T02:41:16;92491.66;;;4.45;84.22
64402;BME280;50724;42.376;23.768;2023-04-03T02:44:17;92479.03;;;4.59;83.71
64402;BME280;50724;42.376;23.768;2023-04-03T02:47:19;92479.91;;;4.68;83.90
64402;BME280;50724;42.376;23.768;2023-04-03T02:50:19;92478.75;;;4.80;83.51
64402;BME280;50724;42.376;23.768;2023-04-03T02:53:20;92465.25;;;4.76;83.50
64402;BME280;50724;42.376;23.768;2023-04-03T02:56:20;92467.34;;;4.73;83.46
64402;BME280;50724;42.376;23.768;2023-04-03T02:59:21;92464.38;;;4.68;83.21
64402;BME280;50724;42.376;23.768;2023-04-03T03:02:21;92461.25;;;4.64;83.68
64402;BME280;50724;42.376;23.768;2023-04-03T03:05:22;92464.16;;;4.61;83.38
64402;BME280;50724;42.376;23.768;2023-04-03T03:08:22;92458.13;;;4.43;84.23
64402;BME280;50724;42.376;23.768;2023-04-03T03:11:22;92456.56;;;4.50;83.18
64402;BME280;50724;42.376;23.768;2023-04-03T03:14:23;92459.66;;;4.36;83.76
64402;BME280;50724;42.376;23.768;2023-04-03T03:17:24;92459.22;;;4.23;84.39
64402;BME280;50724;42.376;23.768;2023-04-03T03:20:24;92459.47;;;4.20;84.91
64402;BME280;50724;42.376;23.768;2023-04-03T03:23:25;92457.63;;;4.40;84.14
64402;BME280;50724;42.376;23.768;2023-04-03T03:26:26;92447.47;;;4.46;83.57
64402;BME280;50724;42.376;23.768;2023-04-03T03:29:26;92445.25;;;4.34;83.98
64402;BME280;50724;42.376;23.768;2023-04-03T03:32:27;92444.34;;;4.25;84.85
64402;BME280;50724;42.376;23.768;2023-04-03T03:35:35;92445.16;;;4.26;85.11
64402;BME280;50724;42.376;23.768;2023-04-03T03:38:36;92447.59;;;4.27;84.79
64402;BME280;50724;42.376;23.768;2023-04-03T03:41:37;92440.50;;;4.29;84.61
64402;BME280;50724;42.376;23.768;2023-04-03T03:44:37;92449.28;;;4.18;85.76
64402;BME280;50724;42.376;23.768;2023-04-03T03:47:38;92450.78;;;4.21;86.07
64402;BME280;50724;42.376;23.768;2023-04-03T03:50:38;92454.25;;;4.30;86.03
64402;BME280;50724;42.376;23.768;2023-04-03T03:53:38;92449.03;;;4.39;85.54
64402;BME280;50724;42.376;23.768;2023-04-03T03:56:39;92458.88;;;4.53;85.27
64402;BME280;50724;42.376;23.768;2023-04-03T03:59:40;92458.88;;;4.53;84.80
64402;BME280;50724;42.376;23.768;2023-04-03T04:02:42;92456.13;;;4.55;85.25
64402;BME280;50724;42.376;23.768;2023-04-03T04:05:43;92458.22;;;4.51;85.33
64402;BME280;50724;42.376;23.768;2023-04-03T04:08:43;92459.75;;;4.44;84.93
64402;BME280;50724;42.376;23.768;2023-04-03T04:11:44;92451.19;;;4.44;84.48
64402;BME280;50724;42.376;23.768;2023-04-03T04:14:45;92460.31;;;4.48;84.16
64402;BME280;50724;42.376;23.768;2023-04-03T04:17:47;92464.06;;;4.53;84.62
64402;BME280;50724;42.376;23.768;2023-04-03T04:20:48;92469.47;;;4.60;84.42
64402;BME280;50724;42.376;23.768;2023-04-03T04:23:48;92469.09;;;4.90;82.59
64402;BME280;50724;42.376;23.768;2023-04-03T04:26:49;92467.19;;;5.27;80.43
64402;BME280;50724;42.376;23.768;2023-04-03T04:29:49;92475.56;;;5.47;79.91
64402;BME280;50724;42.376;23.768;2023-04-03T04:32:50;92485.22;;;5.37;80.24
64402;BME280;50724;42.376;23.768;2023-04-03T04:35:50;92491.66;;;5.33;80.98
64402;BME280;50724;42.376;23.768;2023-04-03T04:38:51;92495.28;;;5.40;81.09
64402;BME280;50724;42.376;23.768;2023-04-03T04:41:53;92497.16;;;5.12;82.16
64402;BME280;50724;42.376;23.768;2023-04-03T04:44:56;92497.38;;;5.36;81.76
64402;BME280;50724;42.376;23.768;2023-04-03T04:47:56;92504.91;;;5.47;81.77
64402;BME280;50724;42.376;23.768;2023-04-03T04:50:57;92519.75;;;5.81;80.52
64402;BME280;50724;42.376;23.768;2023-04-03T04:53:57;92512.25;;;5.78;79.94
64402;BME280;50724;42.376;23.768;2023-04-03T04:56:58;92504.25;;;5.89;79.11
64402;BME280;50724;42.376;23.768;2023-04-03T04:59:58;92499.72;;;6.16;78.44
64402;BME280;50724;42.376;23.768;2023-04-03T05:02:59;92519.03;;;5.88;79.99
64402;BME280;50724;42.376;23.768;2023-04-03T05:06:08;92515.28;;;5.91;79.47
64402;BME280;50724;42.376;23.768;2023-04-03T05:09:08;92509.91;;;5.84;80.08
64402;BME280;50724;42.376;23.768;2023-04-03T05:12:10;92512.84;;;6.15;79.33
64402;BME280;50724;42.376;23.768;2023-04-03T05:15:10;92506.00;;;6.48;78.73
64402;BME280;50724;42.376;23.768;2023-04-03T05:18:11;92509.53;;;6.72;78.34
64402;BME280;50724;42.376;23.768;2023-04-03T05:21:11;92502.84;;;6.78;76.83
64402;BME280;50724;42.376;23.768;2023-04-03T05:24:12;92510.91;;;7.01;74.53
64402;BME280;50724;42.376;23.768;2023-04-03T05:27:12;92507.13;;;6.95;75.65
64402;BME280;50724;42.376;23.768;2023-04-03T05:30:16;92507.19;;;7.19;76.38
64402;BME280;50724;42.376;23.768;2023-04-03T05:33:16;92501.50;;;7.48;74.82
64402;BME280;50724;42.376;23.768;2023-04-03T05:36:17;92504.41;;;7.69;76.48
64402;BME280;50724;42.376;23.768;2023-04-03T05:39:18;92504.06;;;8.04;75.26
64402;BME280;50724;42.376;23.768;2023-04-03T05:42:18;92511.19;;;8.18;75.63
64402;BME280;50724;42.376;23.768;2023-04-03T05:45:18;92509.38;;;8.35;73.48
64402;BME280;50724;42.376;23.768;2023-04-03T05:48:19;92500.41;;;8.46;71.37
64402;BME280;50724;42.376;23.768;2023-04-03T05:51:24;92495.66;;;8.57;70.51
64402;BME280;50724;42.376;23.768;2023-04-03T05:54:29;92512.09;;;8.58;68.57
64402;BME280;50724;42.376;23.768;2023-04-03T05:57:30;92516.53;;;8.88;67.46
64402;BME280;50724;42.376;23.768;2023-04-03T06:00:30;92503.28;;;8.97;66.42
64402;BME280;50724;42.376;23.768;2023-04-03T06:03:31;92503.00;;;9.15;65.03
64402;BME280;50724;42.376;23.768;2023-04-03T06:09:50;92498.94;;;8.82;67.21
64402;BME280;50724;42.376;23.768;2023-04-03T06:12:51;92508.91;;;9.09;66.58
64402;BME280;50724;42.376;23.768;2023-04-03T06:15:51;92515.28;;;9.07;66.13
64402;BME280;50724;42.376;23.768;2023-04-03T06:18:52;92515.50;;;9.28;64.87
64402;BME280;50724;42.376;23.768;2023-04-03T06:21:52;92518.28;;;9.49;63.98
64402;BME280;50724;42.376;23.768;2023-04-03T06:24:53;92515.09;;;9.61;64.08
64402;BME280;50724;42.376;23.768;2023-04-03T06:27:54;92517.88;;;9.60;64.63
64402;BME280;50724;42.376;23.768;2023-04-03T06:30:55;92520.50;;;9.60;64.82
64402;BME280;50724;42.376;23.768;2023-04-03T06:33:56;92520.78;;;9.42;65.82
64402;BME280;50724;42.376;23.768;2023-04-03T06:36:56;92520.34;;;9.31;65.81
64402;BME280;50724;42.376;23.768;2023-04-03T06:39:57;92521.13;;;9.39;64.92
64402;BME280;50724;42.376;23.768;2023-04-03T06:42:58;92517.28;;;9.27;64.67
64402;BME280;50724;42.376;23.768;2023-04-03T06:45:58;92530.44;;;9.34;65.47
64402;BME280;50724;42.376;23.768;2023-04-03T06:48:58;92531.16;;;9.28;65.44
64402;BME280;50724;42.376;23.768;2023-04-03T06:51:59;92517.91;;;9.29;64.52
64402;BME280;50724;42.376;23.768;2023-04-03T06:54:59;92518.44;;;9.47;64.64
64402;BME280;50724;42.376;23.768;2023-04-03T06:58:00;92504.38;;;9.56;62.17
64402;BME280;50724;42.376;23.768;2023-04-03T07:01:01;92511.59;;;9.69;60.80
64402;BME280;50724;42.376;23.768;2023-04-03T07:04:02;92522.91;;;9.84;61.63
64402;BME280;50724;42.376;23.768;2023-04-03T07:07:02;92510.75;;;10.14;59.06
64402;BME280;50724;42.376;23.768;2023-04-03T07:10:03;92518.53;;;10.36;59.96
64402;BME280;50724;42.376;23.768;2023-04-03T07:13:04;92515.56;;;10.40;59.44
64402;BME280;50724;42.376;23.768;2023-04-03T07:16:05;92511.06;;;10.63;58.95
64402;BME280;50724;42.376;23.768;2023-04-03T07:19:06;92513.41;;;10.72;57.95
64402;BME280;50724;42.376;23.768;2023-04-03T07:22:08;92506.19;;;10.74;58.08
64402;BME280;50724;42.376;23.768;2023-04-03T07:25:09;92489.34;;;10.33;59.42
64402;BME280;50724;42.376;23.768;2023-04-03T07:28:11;92479.25;;;10.59;58.61
64402;BME280;50724;42.376;23.768;2023-04-03T07:31:12;92473.19;;;10.59;59.09
64402;BME280;50724;42.376;23.768;2023-04-03T07:34:16;92478.94;;;10.83;59.29
64402;BME280;50724;42.376;23.768;2023-04-03T07:37:17;92466.97;;;11.10;58.97
64402;BME280;50724;42.376;23.768;2023-04-03T07:40:18;92472.81;;;11.48;57.50
64402;BME280;50724;42.376;23.768;2023-04-03T07:43:19;92478.00;;;11.62;56.30
64402;BME280;50724;42.376;23.768;2023-04-03T07:46:20;92481.09;;;11.94;55.08
64402;BME280;50724;42.376;23.768;2023-04-03T07:49:21;92482.81;;;12.08;55.90
64402;BME280;50724;42.376;23.768;2023-04-03T07:52:24;92483.88;;;12.13;55.70
64402;BME280;50724;42.376;23.768;2023-04-03T07:55:25;92488.56;;;12.18;56.33
64402;BME280;50724;42.376;23.768;2023-04-03T07:58:26;92485.03;;;12.32;55.85
64402;BME280;50724;42.376;23.768;2023-04-03T08:01:27;92490.03;;;12.27;54.76
64402;BME280;50724;42.376;23.768;2023-04-03T08:04:27;92490.56;;;12.16;55.10
64402;BME280;50724;42.376;23.768;2023-04-03T08:07:28;92489.41;;;11.97;54.93
64402;BME280;50724;42.376;23.768;2023-04-03T08:10:30;92486.19;;;11.95;56.37
64402;BME280;50724;42.376;23.768;2023-04-03T08:13:30;92489.19;;;12.20;56.50
64402;BME280;50724;42.376;23.768;2023-04-03T08:16:31;92488.66;;;12.59;53.65
64402;BME280;50724;42.376;23.768;2023-04-03T08:19:31;92480.34;;;12.89;53.54
64402;BME280;50724;42.376;23.768;2023-04-03T08:22:33;92478.56;;;13.03;51.72
64402;BME280;50724;42.376;23.768;2023-04-03T08:25:40;92476.84;;;13.23;51.63
64402;BME280;50724;42.376;23.768;2023-04-03T08:28:41;92475.91;;;13.44;50.78
64402;BME280;50724;42.376;23.768;2023-04-03T08:31:42;92470.25;;;13.47;50.44
64402;BME280;50724;42.376;23.768;2023-04-03T08:47:23;92427.44;;;13.72;50.74
64402;BME280;50724;42.376;23.768;2023-04-03T08:50:31;92431.06;;;13.65;50.69
64402;BME280;50724;42.376;23.768;2023-04-03T08:53:35;92425.63;;;13.79;48.98
64402;BME280;50724;42.376;23.768;2023-04-03T08:56:40;92418.75;;;13.72;49.44
64402;BME280;50724;42.376;23.768;2023-04-03T08:59:41;92434.47;;;13.33;48.00
64402;BME280;50724;42.376;23.768;2023-04-03T09:02:50;92439.25;;;13.16;49.34
64402;BME280;50724;42.376;23.768;2023-04-03T09:06:05;92442.34;;;13.33;49.49
64402;BME280;50724;42.376;23.768;2023-04-03T09:15:23;92429.44;;;12.50;50.45
64402;BME280;50724;42.376;23.768;2023-04-03T09:18:35;92432.41;;;12.74;49.58
64402;BME280;50724;42.376;23.768;2023-04-03T09:21:40;92431.53;;;12.61;49.97
64402;BME280;50724;42.376;23.768;2023-04-03T09:24:49;92428.69;;;12.56;51.69
64402;BME280;50724;42.376;23.768;2023-04-03T09:27:55;92428.22;;;12.80;52.91
64402;BME280;50724;42.376;23.768;2023-04-03T09:30:56;92419.66;;;13.05;52.35
64402;BME280;50724;42.376;23.768;2023-04-03T09:33:59;92413.22;;;13.21;50.83
64402;BME280;50724;42.376;23.768;2023-04-03T09:37:04;92415.63;;;13.09;51.36
64402;BME280;50724;42.376;23.768;2023-04-03T09:46:31;92416.09;;;12.85;52.96
64402;BME280;50724;42.376;23.768;2023-04-03T09:49:32;92417.19;;;12.57;54.04
64402;BME280;50724;42.376;23.768;2023-04-03T09:52:32;92417.84;;;12.31;54.06
64402;BME280;50724;42.376;23.768;2023-04-03T09:55:43;92419.38;;;12.47;54.57
64402;BME280;50724;42.376;23.768;2023-04-03T09:58:46;92411.16;;;12.22;54.80
64402;BME280;50724;42.376;23.768;2023-04-03T10:02:00;92420.09;;;12.00;55.60
64402;BME280;50724;42.376;23.768;2023-04-03T10:05:04;92425.22;;;12.14;55.65
64402;BME280;50724;42.376;23.768;2023-04-03T10:11:17;92427.53;;;11.75;59.56
64402;BME280;50724;42.376;23.768;2023-04-03T10:14:21;92429.59;;;11.80;59.49
64402;BME280;50724;42.376;23.768;2023-04-03T10:17:42;92428.78;;;11.58;61.66
64402;BME280;50724;42.376;23.768;2023-04-03T10:20:51;92426.03;;;11.45;62.88
64402;BME280;50724;42.376;23.768;2023-04-03T10:24:13;92417.31;;;11.38;64.12
64402;BME280;50724;42.376;23.768;2023-04-03T10:34:18;92422.19;;;11.20;66.29
64402;BME280;50724;42.376;23.768;2023-04-03T10:40:50;92428.47;;;10.68;66.15
64402;BME280;50724;42.376;23.768;2023-04-03T10:47:32;92427.31;;;10.42;67.56
64402;BME280;50724;42.376;23.768;2023-04-03T10:50:52;92430.59;;;10.29;70.32
64402;BME280;50724;42.376;23.768;2023-04-03T10:54:11;92435.97;;;10.27;70.22
64402;BME280;50724;42.376;23.768;2023-04-03T10:57:13;92436.47;;;10.08;69.96
64402;BME280;50724;42.376;23.768;2023-04-03T11:00:30;92440.09;;;10.07;69.97
64402;BME280;50724;42.376;23.768;2023-04-03T11:03:40;92433.09;;;10.22;71.99
64402;BME280;50724;42.376;23.768;2023-04-03T11:06:50;92432.69;;;10.11;70.06
64402;BME280;50724;42.376;23.768;2023-04-03T11:10:02;92434.03;;;10.07;72.15
64402;BME280;50724;42.376;23.768;2023-04-03T11:13:22;92441.47;;;9.81;71.34
64402;BME280;50724;42.376;23.768;2023-04-03T11:16:29;92432.19;;;9.78;72.05
64402;BME280;50724;42.376;23.768;2023-04-03T11:19:41;92444.59;;;9.61;76.20
64402;BME280;50724;42.376;23.768;2023-04-03T11:22:52;92450.25;;;9.50;78.52
64402;BME280;50724;42.376;23.768;2023-04-03T11:25:56;92453.81;;;9.35;81.53
64402;BME280;50724;42.376;23.768;2023-04-03T11:29:03;92444.47;;;9.18;82.74
64402;BME280;50724;42.376;23.768;2023-04-03T11:35:43;92443.88;;;8.77;86.97
64402;BME280;50724;42.376;23.768;2023-04-03T11:38:45;92446.84;;;8.74;89.17
64402;BME280;50724;42.376;23.768;2023-04-03T11:42:17;92442.06;;;8.55;91.84
64402;BME280;50724;42.376;23.768;2023-04-03T11:48:45;92440.81;;;8.73;92.41
64402;BME280;50724;42.376;23.768;2023-04-03T11:51:47;92432.72;;;8.91;92.19
64402;BME280;50724;42.376;23.768;2023-04-03T11:54:48;92438.22;;;8.73;92.62
64402;BME280;50724;42.376;23.768;2023-04-03T12:01:01;92432.19;;;8.73;95.32
64402;BME280;50724;42.376;23.768;2023-04-03T12:04:10;92429.16;;;8.61;95.80
64402;BME280;50724;42.376;23.768;2023-04-03T12:07:17;92433.03;;;8.65;96.68
64402;BME280;50724;42.376;23.768;2023-04-03T12:10:18;92416.63;;;8.57;96.43
64402;BME280;50724;42.376;23.768;2023-04-03T12:13:19;92414.63;;;8.36;98.98
64402;BME280;50724;42.376;23.768;2023-04-03T12:16:25;92405.47;;;8.40;99.38
64402;BME280;50724;42.376;23.768;2023-04-03T12:22:32;92392.31;;;8.34;100.00
64402;BME280;50724;42.376;23.768;2023-04-03T12:25:52;92384.84;;;8.30;100.00
64402;BME280;50724;42.376;23.768;2023-04-03T12:29:02;92387.81;;;8.19;97.63
64402;BME280;50724;42.376;23.768;2023-04-03T13:06:37;92335.13;;;7.62;100.00
64402;BME280;50724;42.376;23.768;2023-04-03T13:10:03;92334.97;;;7.56;100.00
64402;BME280;50724;42.376;23.768;2023-04-03T13:13:09;92337.72;;;7.62;100.00
64402;BME280;50724;42.376;23.768;2023-04-03T13:16:11;92338.88;;;7.60;100.00
64402;BME280;50724;42.376;23.768;2023-04-03T13:19:17;92331.75;;;7.46;100.00
64402;BME280;50724;42.376;23.768;2023-04-03T13:25:31;92328.88;;;7.25;100.00
64402;BME280;50724;42.376;23.768;2023-04-03T13:28:33;92323.34;;;7.20;100.00
64402;BME280;50724;42.376;23.768;2023-04-03T13:31:37;92324.97;;;7.13;100.00
64402;BME280;50724;42.376;23.768;2023-04-03T13:34:41;92314.59;;;7.05;100.00
64402;BME280;50724;42.376;23.768;2023-04-03T13:37:54;92312.97;;;7.12;100.00
64402;BME280;50724;42.376;23.768;2023-04-03T13:41:00;92313.75;;;7.20;100.00
64402;BME280;50724;42.376;23.768;2023-04-03T13:47:25;92302.22;;;7.23;100.00
64402;BME280;50724;42.376;23.768;2023-04-03T13:50:26;92294.44;;;7.07;100.00
64402;BME280;50724;42.376;23.768;2023-04-03T13:53:28;92296.56;;;7.11;100.00
64402;BME280;50724;42.376;23.768;2023-04-03T13:56:36;92293.00;;;7.12;100.00
64402;BME280;50724;42.376;23.768;2023-04-03T13:59:38;92291.34;;;7.11;100.00
64402;BME280;50724;42.376;23.768;2023-04-03T14:02:38;92302.75;;;7.10;100.00
64402;BME280;50724;42.376;23.768;2023-04-03T14:05:39;92287.66;;;6.98;100.00
64402;BME280;50724;42.376;23.768;2023-04-03T14:08:40;92287.66;;;7.06;100.00
64402;BME280;50724;42.376;23.768;2023-04-03T14:11:41;92273.34;;;7.02;100.00
64402;BME280;50724;42.376;23.768;2023-04-03T14:14:42;92278.25;;;6.88;100.00
64402;BME280;50724;42.376;23.768;2023-04-03T14:17:43;92276.13;;;6.92;100.00
64402;BME280;50724;42.376;23.768;2023-04-03T14:20:44;92282.28;;;6.99;100.00
64402;BME280;50724;42.376;23.768;2023-04-03T14:23:45;92280.97;;;7.11;100.00
64402;BME280;50724;42.376;23.768;2023-04-03T14:26:47;92278.69;;;7.08;100.00
64402;BME280;50724;42.376;23.768;2023-04-03T14:29:49;92272.38;;;7.03;100.00
64402;BME280;50724;42.376;23.768;2023-04-03T14:32:50;92283.59;;;7.03;100.00
64402;BME280;50724;42.376;23.768;2023-04-03T14:35:51;92270.59;;;6.95;100.00
64402;BME280;50724;42.376;23.768;2023-04-03T14:38:53;92264.91;;;7.08;100.00
64402;BME280;50724;42.376;23.768;2023-04-03T14:41:53;92258.88;;;7.07;100.00
64402;BME280;50724;42.376;23.768;2023-04-03T14:44:54;92267.66;;;6.98;100.00
64402;BME280;50724;42.376;23.768;2023-04-03T14:47:55;92263.25;;;7.15;100.00
64402;BME280;50724;42.376;23.768;2023-04-03T14:50:56;92268.63;;;7.05;100.00
64402;BME280;50724;42.376;23.768;2023-04-03T14:53:57;92258.25;;;6.97;100.00
64402;BME280;50724;42.376;23.768;2023-04-03T14:56:59;92262.63;;;6.97;100.00
64402;BME280;50724;42.376;23.768;2023-04-03T15:00:00;92253.06;;;6.81;100.00
64402;BME280;50724;42.376;23.768;2023-04-03T15:03:02;92251.78;;;6.77;100.00
64402;BME280;50724;42.376;23.768;2023-04-03T15:06:02;92245.91;;;6.83;100.00
64402;BME280;50724;42.376;23.768;2023-04-03T15:09:03;92242.06;;;6.63;100.00
64402;BME280;50724;42.376;23.768;2023-04-03T15:12:03;92241.22;;;6.54;100.00
64402;BME280;50724;42.376;23.768;2023-04-03T15:15:04;92221.59;;;6.60;100.00
64402;BME280;50724;42.376;23.768;2023-04-03T15:18:05;92221.28;;;6.63;100.00
64402;BME280;50724;42.376;23.768;2023-04-03T15:21:06;92213.50;;;6.47;100.00
64402;BME280;50724;42.376;23.768;2023-04-03T15:24:06;92206.66;;;6.46;100.00
64402;BME280;50724;42.376;23.768;2023-04-03T15:27:07;92201.16;;;6.41;100.00
64402;BME280;50724;42.376;23.768;2023-04-03T15:30:13;92201.47;;;6.46;100.00
64402;BME280;50724;42.376;23.768;2023-04-03T15:33:14;92199.03;;;6.52;100.00
64402;BME280;50724;42.376;23.768;2023-04-03T15:36:15;92199.66;;;6.54;100.00
64402;BME280;50724;42.376;23.768;2023-04-03T15:39:16;92193.50;;;6.55;100.00
64402;BME280;50724;42.376;23.768;2023-04-03T15:42:16;92190.75;;;6.57;100.00
64402;BME280;50724;42.376;23.768;2023-04-03T15:45:17;92188.31;;;6.55;100.00
64402;BME280;50724;42.376;23.768;2023-04-03T15:48:18;92171.59;;;6.58;100.00
64402;BME280;50724;42.376;23.768;2023-04-03T15:51:18;92163.94;;;6.64;100.00
64402;BME280;50724;42.376;23.768;2023-04-03T15:54:19;92158.28;;;6.61;100.00
64402;BME280;50724;42.376;23.768;2023-04-03T15:57:19;92161.03;;;6.59;100.00
64402;BME280;50724;42.376;23.768;2023-04-03T16:00:21;92157.59;;;6.67;100.00
64402;BME280;50724;42.376;23.768;2023-04-03T16:03:22;92142.84;;;6.67;100.00
64402;BME280;50724;42.376;23.768;2023-04-03T16:06:24;92133.28;;;6.60;100.00
64402;BME280;50724;42.376;23.768;2023-04-03T16:09:26;92133.28;;;6.60;100.00
64402;BME280;50724;42.376;23.768;2023-04-03T16:12:26;92125.66;;;6.58;100.00
64402;BME280;50724;42.376;23.768;2023-04-03T16:15:27;92125.16;;;6.63;100.00
64402;BME280;50724;42.376;23.768;2023-04-03T16:18:28;92111.22;;;6.56;100.00
64402;BME280;50724;42.376;23.768;2023-04-03T16:21:29;92104.38;;;6.55;100.00
64402;BME280;50724;42.376;23.768;2023-04-03T16:24:30;92103.91;;;6.51;100.00
64402;BME280;50724;42.376;23.768;2023-04-03T16:27:32;92099.50;;;6.52;100.00
64402;BME280;50724;42.376;23.768;2023-04-03T16:30:33;92098.69;;;6.59;100.00
64402;BME280;50724;42.376;23.768;2023-04-03T16:33:33;92103.25;;;6.57;100.00
64402;BME280;50724;42.376;23.768;2023-04-03T16:36:34;92081.13;;;6.61;100.00
64402;BME280;50724;42.376;23.768;2023-04-03T16:39:35;92074.66;;;6.57;100.00
64402;BME280;50724;42.376;23.768;2023-04-03T16:42:35;92080.69;;;6.58;100.00
64402;BME280;50724;42.376;23.768;2023-04-03T16:45:36;92070.75;;;6.61;100.00
64402;BME280;50724;42.376;23.768;2023-04-03T16:48:37;92058.13;;;6.58;100.00
64402;BME280;50724;42.376;23.768;2023-04-03T16:51:37;92052.28;;;6.56;100.00
64402;BME280;50724;42.376;23.768;2023-04-03T16:54:38;92044.63;;;6.55;100.00
64402;BME280;50724;42.376;23.768;2023-04-03T16:57:38;92046.72;;;6.59;100.00
64402;BME280;50724;42.376;23.768;2023-04-03T17:00:39;92050.13;;;6.68;100.00
64402;BME280;50724;42.376;23.768;2023-04-03T17:03:39;92041.47;;;6.75;100.00
64402;BME280;50724;42.376;23.768;2023-04-03T17:06:40;92045.38;;;6.71;100.00
64402;BME280;50724;42.376;23.768;2023-04-03T17:09:40;92035.00;;;6.71;100.00
64402;BME280;50724;42.376;23.768;2023-04-03T17:12:41;92026.56;;;6.69;100.00
64402;BME280;50724;42.376;23.768;2023-04-03T17:15:41;92020.97;;;6.80;100.00
64402;BME280;50724;42.376;23.768;2023-04-03T17:18:42;92018.69;;;6.85;100.00
64402;BME280;50724;42.376;23.768;2023-04-03T17:21:44;92022.59;;;6.81;100.00
64402;BME280;50724;42.376;23.768;2023-04-03T17:24:45;92018.06;;;7.06;100.00
64402;BME280;50724;42.376;23.768;2023-04-03T17:27:45;92018.59;;;7.02;100.00
64402;BME280;50724;42.376;23.768;2023-04-03T17:30:46;92023.66;;;6.95;100.00
64402;BME280;50724;42.376;23.768;2023-04-03T17:33:46;92022.13;;;6.78;100.00
64402;BME280;50724;42.376;23.768;2023-04-03T17:36:47;92023.13;;;6.77;100.00
64402;BME280;50724;42.376;23.768;2023-04-03T17:39:47;92016.81;;;6.71;100.00
64402;BME280;50724;42.376;23.768;2023-04-03T17:42:48;92023.25;;;6.83;100.00
64402;BME280;50724;42.376;23.768;2023-04-03T17:45:48;92025.63;;;6.62;100.00